sensor_id;sensor_type;location;lat;lon;timestamp;P1;durP1;ratioP1;P2;durP2;ratioP2
73474;SDS011;61711;52.266;10.542;2023-07-13T00:00:33;4.35;;;3.60;;
73474;SDS011;61711;52.266;10.542;2023-07-13T00:02:59;4.20;;;3.58;;
73474;SDS011;61711;52.266;10.542;2023-07-13T00:05:25;5.25;;;3.83;;
73474;SDS011;61711;52.266;10.542;2023-07-13T00:07:52;4.43;;;3.80;;
73474;SDS011;61711;52.266;10.542;2023-07-13T00:10:19;6.63;;;3.40;;
73474;SDS011;61711;52.266;10.542;2023-07-13T00:12:45;6.72;;;3.60;;
73474;SDS011;61711;52.266;10.542;2023-07-13T00:15:19;4.82;;;3.92;;
73474;SDS011;61711;52.266;10.542;2023-07-13T00:17:48;5.50;;;3.63;;
73474;SDS011;61711;52.266;10.542;2023-07-13T00:20:15;5.22;;;3.70;;
73474;SDS011;61711;52.266;10.542;2023-07-13T00:22:41;4.82;;;3.78;;
73474;SDS011;61711;52.266;10.542;2023-07-13T00:25:08;5.53;;;4.00;;
73474;SDS011;61711;52.266;10.542;2023-07-13T00:27:34;5.78;;;3.85;;
73474;SDS011;61711;52.266;10.542;2023-07-13T00:30:00;8.00;;;4.10;;
73474;SDS011;61711;52.266;10.542;2023-07-13T00:32:28;5.53;;;3.85;;
73474;SDS011;61711;52.266;10.542;2023-07-13T00:34:54;6.80;;;4.03;;
73474;SDS011;61711;52.266;10.542;2023-07-13T00:37:22;7.00;;;3.60;;
73474;SDS011;61711;52.266;10.542;2023-07-13T00:39:48;6.40;;;3.83;;
73474;SDS011;61711;52.266;10.542;2023-07-13T00:42:14;6.10;;;4.13;;
73474;SDS011;61711;52.266;10.542;2023-07-13T00:44:40;6.95;;;3.78;;
73474;SDS011;61711;52.266;10.542;2023-07-13T00:47:06;6.30;;;4.18;;
73474;SDS011;61711;52.266;10.542;2023-07-13T00:49:33;8.57;;;4.05;;
73474;SDS011;61711;52.266;10.542;2023-07-13T00:52:07;9.13;;;3.85;;
73474;SDS011;61711;52.266;10.542;2023-07-13T00:54:35;7.47;;;3.80;;
73474;SDS011;61711;52.266;10.542;2023-07-13T00:57:03;6.47;;;4.10;;
73474;SDS011;61711;52.266;10.542;2023-07-13T00:59:30;7.30;;;3.90;;
73474;SDS011;61711;52.266;10.542;2023-07-13T01:01:57;7.00;;;4.53;;
73474;SDS011;61711;52.266;10.542;2023-07-13T01:04:24;6.80;;;4.00;;
73474;SDS011;61711;52.266;10.542;2023-07-13T01:06:50;5.65;;;4.10;;
73474;SDS011;61711;52.266;10.542;2023-07-13T01:09:16;6.13;;;4.05;;
73474;SDS011;61711;52.266;10.542;2023-07-13T01:11:42;5.90;;;3.90;;
73474;SDS011;61711;52.266;10.542;2023-07-13T01:14:10;5.75;;;3.95;;
73474;SDS011;61711;52.266;10.542;2023-07-13T01:16:36;7.00;;;4.20;;
73474;SDS011;61711;52.266;10.542;2023-07-13T01:19:03;7.07;;;3.92;;
73474;SDS011;61711;52.266;10.542;2023-07-13T01:21:34;7.47;;;4.40;;
73474;SDS011;61711;52.266;10.542;2023-07-13T01:24:00;7.10;;;4.10;;
73474;SDS011;61711;52.266;10.542;2023-07-13T01:26:27;5.70;;;4.32;;
73474;SDS011;61711;52.266;10.542;2023-07-13T01:28:53;6.13;;;3.85;;
73474;SDS011;61711;52.266;10.542;2023-07-13T01:31:21;7.50;;;4.25;;
73474;SDS011;61711;52.266;10.542;2023-07-13T01:33:47;4.70;;;3.88;;
73474;SDS011;61711;52.266;10.542;2023-07-13T01:36:13;6.22;;;4.40;;
73474;SDS011;61711;52.266;10.542;2023-07-13T01:38:39;7.75;;;4.03;;
73474;SDS011;61711;52.266;10.542;2023-07-13T01:41:05;6.13;;;4.15;;
73474;SDS011;61711;52.266;10.542;2023-07-13T01:43:32;5.72;;;4.00;;
73474;SDS011;61711;52.266;10.542;2023-07-13T01:45:58;5.72;;;3.88;;
73474;SDS011;61711;52.266;10.542;2023-07-13T01:48:24;8.80;;;4.50;;
73474;SDS011;61711;52.266;10.542;2023-07-13T01:50:50;5.32;;;3.97;;
73474;SDS011;61711;52.266;10.542;2023-07-13T01:53:16;7.68;;;4.25;;
73474;SDS011;61711;52.266;10.542;2023-07-13T01:55:42;5.78;;;4.25;;
73474;SDS011;61711;52.266;10.542;2023-07-13T01:58:08;7.40;;;4.07;;
73474;SDS011;61711;52.266;10.542;2023-07-13T02:00:34;5.10;;;3.85;;
73474;SDS011;61711;52.266;10.542;2023-07-13T02:03:00;6.53;;;3.75;;
73474;SDS011;61711;52.266;10.542;2023-07-13T02:05:26;6.25;;;4.00;;
73474;SDS011;61711;52.266;10.542;2023-07-13T02:07:52;5.60;;;4.00;;
73474;SDS011;61711;52.266;10.542;2023-07-13T02:10:18;6.57;;;4.00;;
73474;SDS011;61711;52.266;10.542;2023-07-13T02:12:44;5.97;;;3.83;;
73474;SDS011;61711;52.266;10.542;2023-07-13T02:15:10;7.35;;;4.60;;
73474;SDS011;61711;52.266;10.542;2023-07-13T02:17:36;7.25;;;4.00;;
73474;SDS011;61711;52.266;10.542;2023-07-13T02:20:03;5.82;;;4.32;;
73474;SDS011;61711;52.266;10.542;2023-07-13T02:22:29;7.07;;;4.65;;
73474;SDS011;61711;52.266;10.542;2023-07-13T02:24:56;6.05;;;4.13;;
73474;SDS011;61711;52.266;10.542;2023-07-13T02:27:22;5.53;;;4.20;;
73474;SDS011;61711;52.266;10.542;2023-07-13T02:29:48;7.07;;;4.18;;
73474;SDS011;61711;52.266;10.542;2023-07-13T02:32:16;4.55;;;4.03;;
73474;SDS011;61711;52.266;10.542;2023-07-13T02:34:42;8.35;;;4.60;;
73474;SDS011;61711;52.266;10.542;2023-07-13T02:37:08;6.13;;;4.20;;
73474;SDS011;61711;52.266;10.542;2023-07-13T02:39:34;9.65;;;4.53;;
73474;SDS011;61711;52.266;10.542;2023-07-13T02:42:00;5.63;;;4.03;;
73474;SDS011;61711;52.266;10.542;2023-07-13T02:44:26;6.75;;;4.20;;
73474;SDS011;61711;52.266;10.542;2023-07-13T02:46:53;6.60;;;4.13;;
73474;SDS011;61711;52.266;10.542;2023-07-13T02:49:19;6.72;;;3.97;;
73474;SDS011;61711;52.266;10.542;2023-07-13T02:51:45;6.70;;;4.40;;
73474;SDS011;61711;52.266;10.542;2023-07-13T02:54:11;7.85;;;4.43;;
73474;SDS011;61711;52.266;10.542;2023-07-13T02:56:38;5.28;;;3.97;;
73474;SDS011;61711;52.266;10.542;2023-07-13T02:59:04;10.07;;;4.70;;
73474;SDS011;61711;52.266;10.542;2023-07-13T03:01:30;8.88;;;4.40;;
73474;SDS011;61711;52.266;10.542;2023-07-13T03:03:57;6.43;;;4.10;;
73474;SDS011;61711;52.266;10.542;2023-07-13T03:06:23;6.25;;;4.18;;
73474;SDS011;61711;52.266;10.542;2023-07-13T03:08:49;5.90;;;4.00;;
73474;SDS011;61711;52.266;10.542;2023-07-13T03:11:17;5.53;;;4.20;;
73474;SDS011;61711;52.266;10.542;2023-07-13T03:13:43;6.53;;;4.10;;
73474;SDS011;61711;52.266;10.542;2023-07-13T03:16:09;7.40;;;4.38;;
73474;SDS011;61711;52.266;10.542;2023-07-13T03:18:36;6.82;;;4.22;;
73474;SDS011;61711;52.266;10.542;2023-07-13T03:21:02;7.80;;;3.72;;
73474;SDS011;61711;52.266;10.542;2023-07-13T03:23:28;5.25;;;3.92;;
73474;SDS011;61711;52.266;10.542;2023-07-13T03:26:01;7.20;;;4.00;;
73474;SDS011;61711;52.266;10.542;2023-07-13T03:28:28;7.55;;;3.97;;
73474;SDS011;61711;52.266;10.542;2023-07-13T03:31:01;6.18;;;4.05;;
73474;SDS011;61711;52.266;10.542;2023-07-13T03:33:28;8.45;;;4.22;;
73474;SDS011;61711;52.266;10.542;2023-07-13T03:35:55;7.13;;;4.18;;
73474;SDS011;61711;52.266;10.542;2023-07-13T03:38:21;5.60;;;3.65;;
73474;SDS011;61711;52.266;10.542;2023-07-13T03:40:47;5.68;;;3.75;;
73474;SDS011;61711;52.266;10.542;2023-07-13T03:43:13;5.30;;;3.78;;
73474;SDS011;61711;52.266;10.542;2023-07-13T03:45:39;6.68;;;4.00;;
73474;SDS011;61711;52.266;10.542;2023-07-13T03:48:06;4.88;;;4.05;;
73474;SDS011;61711;52.266;10.542;2023-07-13T03:50:32;5.88;;;4.10;;
73474;SDS011;61711;52.266;10.542;2023-07-13T03:52:58;7.13;;;4.07;;
73474;SDS011;61711;52.266;10.542;2023-07-13T03:55:24;8.35;;;5.05;;
73474;SDS011;61711;52.266;10.542;2023-07-13T03:57:55;6.93;;;4.53;;
73474;SDS011;61711;52.266;10.542;2023-07-13T04:00:23;7.65;;;4.10;;
73474;SDS011;61711;52.266;10.542;2023-07-13T04:02:49;8.00;;;4.03;;
73474;SDS011;61711;52.266;10.542;2023-07-13T04:05:15;6.32;;;3.90;;
73474;SDS011;61711;52.266;10.542;2023-07-13T04:07:41;6.20;;;4.03;;
73474;SDS011;61711;52.266;10.542;2023-07-13T04:10:07;8.15;;;3.97;;
73474;SDS011;61711;52.266;10.542;2023-07-13T04:12:33;5.65;;;4.00;;
73474;SDS011;61711;52.266;10.542;2023-07-13T04:14:59;6.75;;;4.03;;
73474;SDS011;61711;52.266;10.542;2023-07-13T04:17:25;8.95;;;4.15;;
73474;SDS011;61711;52.266;10.542;2023-07-13T04:19:51;6.22;;;4.03;;
73474;SDS011;61711;52.266;10.542;2023-07-13T04:22:17;8.50;;;6.15;;
73474;SDS011;61711;52.266;10.542;2023-07-13T04:24:43;8.05;;;4.35;;
73474;SDS011;61711;52.266;10.542;2023-07-13T04:27:09;6.22;;;4.00;;
73474;SDS011;61711;52.266;10.542;2023-07-13T04:29:35;5.55;;;3.80;;
73474;SDS011;61711;52.266;10.542;2023-07-13T04:32:01;7.38;;;3.97;;
73474;SDS011;61711;52.266;10.542;2023-07-13T04:34:27;9.15;;;4.13;;
73474;SDS011;61711;52.266;10.542;2023-07-13T04:36:53;5.07;;;3.83;;
73474;SDS011;61711;52.266;10.542;2023-07-13T04:39:19;5.15;;;3.95;;
73474;SDS011;61711;52.266;10.542;2023-07-13T04:41:45;4.70;;;3.72;;
73474;SDS011;61711;52.266;10.542;2023-07-13T04:44:11;5.82;;;4.00;;
73474;SDS011;61711;52.266;10.542;2023-07-13T04:46:37;6.20;;;3.92;;
73474;SDS011;61711;52.266;10.542;2023-07-13T04:49:03;5.97;;;4.15;;
73474;SDS011;61711;52.266;10.542;2023-07-13T04:51:29;6.50;;;3.70;;
73474;SDS011;61711;52.266;10.542;2023-07-13T04:53:55;7.18;;;3.72;;
73474;SDS011;61711;52.266;10.542;2023-07-13T04:56:21;5.22;;;3.85;;
73474;SDS011;61711;52.266;10.542;2023-07-13T04:58:47;8.23;;;4.90;;
73474;SDS011;61711;52.266;10.542;2023-07-13T05:01:13;4.47;;;3.60;;
73474;SDS011;61711;52.266;10.542;2023-07-13T05:03:39;5.55;;;4.60;;
73474;SDS011;61711;52.266;10.542;2023-07-13T05:06:06;7.05;;;4.20;;
73474;SDS011;61711;52.266;10.542;2023-07-13T05:08:34;6.60;;;3.40;;
73474;SDS011;61711;52.266;10.542;2023-07-13T05:11:01;6.05;;;3.60;;
73474;SDS011;61711;52.266;10.542;2023-07-13T05:13:27;5.13;;;3.42;;
73474;SDS011;61711;52.266;10.542;2023-07-13T05:15:57;5.97;;;3.47;;
73474;SDS011;61711;52.266;10.542;2023-07-13T05:18:23;5.55;;;3.20;;
73474;SDS011;61711;52.266;10.542;2023-07-13T05:21:00;5.88;;;3.55;;
73474;SDS011;61711;52.266;10.542;2023-07-13T05:23:26;7.90;;;3.63;;
73474;SDS011;61711;52.266;10.542;2023-07-13T05:25:52;4.95;;;3.70;;
73474;SDS011;61711;52.266;10.542;2023-07-13T05:28:18;5.53;;;3.67;;
73474;SDS011;61711;52.266;10.542;2023-07-13T05:30:47;7.20;;;3.90;;
73474;SDS011;61711;52.266;10.542;2023-07-13T05:33:13;6.38;;;3.70;;
73474;SDS011;61711;52.266;10.542;2023-07-13T05:35:39;5.95;;;3.70;;
73474;SDS011;61711;52.266;10.542;2023-07-13T05:38:05;5.90;;;3.58;;
73474;SDS011;61711;52.266;10.542;2023-07-13T05:40:32;4.97;;;3.15;;
73474;SDS011;61711;52.266;10.542;2023-07-13T05:42:58;5.10;;;3.30;;
73474;SDS011;61711;52.266;10.542;2023-07-13T05:45:24;6.82;;;3.25;;
73474;SDS011;61711;52.266;10.542;2023-07-13T05:47:50;5.30;;;3.35;;
73474;SDS011;61711;52.266;10.542;2023-07-13T05:50:17;4.57;;;3.17;;
73474;SDS011;61711;52.266;10.542;2023-07-13T05:52:43;5.85;;;3.42;;
73474;SDS011;61711;52.266;10.542;2023-07-13T05:55:09;8.45;;;3.45;;
73474;SDS011;61711;52.266;10.542;2023-07-13T05:57:35;5.72;;;2.83;;
73474;SDS011;61711;52.266;10.542;2023-07-13T06:00:01;7.28;;;3.40;;
73474;SDS011;61711;52.266;10.542;2023-07-13T06:02:27;7.35;;;3.42;;
73474;SDS011;61711;52.266;10.542;2023-07-13T06:04:53;8.70;;;3.40;;
73474;SDS011;61711;52.266;10.542;2023-07-13T06:07:19;6.45;;;2.88;;
73474;SDS011;61711;52.266;10.542;2023-07-13T06:09:45;5.00;;;3.45;;
73474;SDS011;61711;52.266;10.542;2023-07-13T06:12:11;4.97;;;2.85;;
73474;SDS011;61711;52.266;10.542;2023-07-13T06:14:37;6.00;;;3.35;;
73474;SDS011;61711;52.266;10.542;2023-07-13T06:17:03;5.20;;;2.83;;
73474;SDS011;61711;52.266;10.542;2023-07-13T06:19:29;6.55;;;2.83;;
73474;SDS011;61711;52.266;10.542;2023-07-13T06:21:56;9.27;;;3.33;;
73474;SDS011;61711;52.266;10.542;2023-07-13T06:24:23;10.32;;;3.80;;
73474;SDS011;61711;52.266;10.542;2023-07-13T06:26:49;6.85;;;3.13;;
73474;SDS011;61711;52.266;10.542;2023-07-13T06:29:15;9.45;;;3.10;;
73474;SDS011;61711;52.266;10.542;2023-07-13T06:31:41;6.82;;;3.08;;
73474;SDS011;61711;52.266;10.542;2023-07-13T06:34:07;7.00;;;3.03;;
73474;SDS011;61711;52.266;10.542;2023-07-13T06:36:33;6.15;;;2.72;;
73474;SDS011;61711;52.266;10.542;2023-07-13T06:39:01;4.65;;;3.50;;
73474;SDS011;61711;52.266;10.542;2023-07-13T06:41:27;5.55;;;3.20;;
73474;SDS011;61711;52.266;10.542;2023-07-13T06:43:53;8.95;;;2.90;;
73474;SDS011;61711;52.266;10.542;2023-07-13T06:46:22;7.03;;;3.33;;
73474;SDS011;61711;52.266;10.542;2023-07-13T06:48:48;7.03;;;3.05;;
73474;SDS011;61711;52.266;10.542;2023-07-13T06:51:14;5.57;;;3.20;;
73474;SDS011;61711;52.266;10.542;2023-07-13T06:53:40;6.35;;;2.95;;
73474;SDS011;61711;52.266;10.542;2023-07-13T06:56:08;7.40;;;3.00;;
73474;SDS011;61711;52.266;10.542;2023-07-13T06:58:35;10.60;;;3.38;;
73474;SDS011;61711;52.266;10.542;2023-07-13T07:01:01;5.22;;;3.50;;
73474;SDS011;61711;52.266;10.542;2023-07-13T07:03:27;7.38;;;3.38;;
73474;SDS011;61711;52.266;10.542;2023-07-13T07:05:53;7.35;;;3.17;;
73474;SDS011;61711;52.266;10.542;2023-07-13T07:08:19;8.85;;;3.70;;
73474;SDS011;61711;52.266;10.542;2023-07-13T07:10:45;8.40;;;4.00;;
73474;SDS011;61711;52.266;10.542;2023-07-13T07:13:11;7.28;;;3.00;;
73474;SDS011;61711;52.266;10.542;2023-07-13T07:15:37;9.75;;;3.60;;
73474;SDS011;61711;52.266;10.542;2023-07-13T07:18:03;8.20;;;4.05;;
73474;SDS011;61711;52.266;10.542;2023-07-13T07:20:29;8.95;;;3.80;;
73474;SDS011;61711;52.266;10.542;2023-07-13T07:22:57;7.07;;;3.42;;
73474;SDS011;61711;52.266;10.542;2023-07-13T07:25:23;7.50;;;3.60;;
73474;SDS011;61711;52.266;10.542;2023-07-13T07:27:49;8.13;;;3.47;;
73474;SDS011;61711;52.266;10.542;2023-07-13T07:30:15;10.07;;;3.92;;
73474;SDS011;61711;52.266;10.542;2023-07-13T07:32:41;7.43;;;3.50;;
73474;SDS011;61711;52.266;10.542;2023-07-13T07:35:08;8.60;;;3.47;;
73474;SDS011;61711;52.266;10.542;2023-07-13T07:37:34;10.45;;;3.60;;
73474;SDS011;61711;52.266;10.542;2023-07-13T07:40:00;8.82;;;3.55;;
73474;SDS011;61711;52.266;10.542;2023-07-13T07:42:26;5.03;;;3.13;;
73474;SDS011;61711;52.266;10.542;2023-07-13T07:44:52;10.27;;;3.28;;
73474;SDS011;61711;52.266;10.542;2023-07-13T07:47:18;8.23;;;3.42;;
73474;SDS011;61711;52.266;10.542;2023-07-13T07:49:44;8.90;;;2.72;;
73474;SDS011;61711;52.266;10.542;2023-07-13T07:52:10;5.43;;;2.90;;
73474;SDS011;61711;52.266;10.542;2023-07-13T07:54:36;7.50;;;2.78;;
73474;SDS011;61711;52.266;10.542;2023-07-13T07:57:02;6.00;;;2.35;;
73474;SDS011;61711;52.266;10.542;2023-07-13T07:59:28;5.95;;;2.22;;
73474;SDS011;61711;52.266;10.542;2023-07-13T08:01:54;4.55;;;2.10;;
73474;SDS011;61711;52.266;10.542;2023-07-13T08:04:20;5.70;;;2.40;;
73474;SDS011;61711;52.266;10.542;2023-07-13T08:06:46;6.60;;;2.13;;
73474;SDS011;61711;52.266;10.542;2023-07-13T08:09:12;7.82;;;2.42;;
73474;SDS011;61711;52.266;10.542;2023-07-13T08:11:39;6.28;;;2.10;;
73474;SDS011;61711;52.266;10.542;2023-07-13T08:14:05;3.88;;;2.33;;
73474;SDS011;61711;52.266;10.542;2023-07-13T08:16:31;4.22;;;2.33;;
73474;SDS011;61711;52.266;10.542;2023-07-13T08:18:57;6.22;;;2.58;;
73474;SDS011;61711;52.266;10.542;2023-07-13T08:21:23;5.15;;;2.42;;
73474;SDS011;61711;52.266;10.542;2023-07-13T08:23:49;7.75;;;2.40;;
73474;SDS011;61711;52.266;10.542;2023-07-13T08:26:15;5.75;;;2.10;;
73474;SDS011;61711;52.266;10.542;2023-07-13T08:28:42;5.40;;;2.33;;
73474;SDS011;61711;52.266;10.542;2023-07-13T08:31:08;4.72;;;2.10;;
73474;SDS011;61711;52.266;10.542;2023-07-13T08:33:35;4.18;;;2.13;;
73474;SDS011;61711;52.266;10.542;2023-07-13T08:36:01;4.28;;;2.00;;
73474;SDS011;61711;52.266;10.542;2023-07-13T08:38:27;4.57;;;1.98;;
73474;SDS011;61711;52.266;10.542;2023-07-13T08:40:54;3.05;;;1.50;;
73474;SDS011;61711;52.266;10.542;2023-07-13T08:43:31;3.60;;;1.80;;
73474;SDS011;61711;52.266;10.542;2023-07-13T08:46:04;4.82;;;2.05;;
73474;SDS011;61711;52.266;10.542;2023-07-13T08:48:35;4.28;;;1.90;;
73474;SDS011;61711;52.266;10.542;2023-07-13T08:51:04;3.10;;;1.73;;
73474;SDS011;61711;52.266;10.542;2023-07-13T08:53:35;5.43;;;1.85;;
73474;SDS011;61711;52.266;10.542;2023-07-13T08:56:02;3.78;;;1.75;;
73474;SDS011;61711;52.266;10.542;2023-07-13T08:58:28;4.22;;;2.00;;
73474;SDS011;61711;52.266;10.542;2023-07-13T09:03:27;4.32;;;1.88;;
73474;SDS011;61711;52.266;10.542;2023-07-13T09:05:58;2.75;;;1.98;;
73474;SDS011;61711;52.266;10.542;2023-07-13T09:08:38;4.90;;;2.22;;
73474;SDS011;61711;52.266;10.542;2023-07-13T09:16:16;6.07;;;2.47;;
73474;SDS011;61711;52.266;10.542;2023-07-13T09:18:42;4.93;;;2.10;;
73474;SDS011;61711;52.266;10.542;2023-07-13T09:21:12;5.43;;;2.75;;
73474;SDS011;61711;52.266;10.542;2023-07-13T09:23:40;4.90;;;2.08;;
73474;SDS011;61711;52.266;10.542;2023-07-13T09:26:11;5.03;;;2.35;;
73474;SDS011;61711;52.266;10.542;2023-07-13T09:28:39;5.53;;;2.30;;
73474;SDS011;61711;52.266;10.542;2023-07-13T09:31:09;3.70;;;2.25;;
73474;SDS011;61711;52.266;10.542;2023-07-13T09:33:37;5.78;;;2.35;;
73474;SDS011;61711;52.266;10.542;2023-07-13T09:44:18;5.78;;;2.53;;
73474;SDS011;61711;52.266;10.542;2023-07-13T09:46:55;6.18;;;2.30;;
73474;SDS011;61711;52.266;10.542;2023-07-13T09:49:39;8.30;;;2.75;;
73474;SDS011;61711;52.266;10.542;2023-07-13T09:52:06;3.90;;;2.40;;
73474;SDS011;61711;52.266;10.542;2023-07-13T09:54:33;5.10;;;2.63;;
73474;SDS011;61711;52.266;10.542;2023-07-13T09:57:00;5.00;;;2.40;;
73474;SDS011;61711;52.266;10.542;2023-07-13T09:59:32;3.80;;;2.10;;
73474;SDS011;61711;52.266;10.542;2023-07-13T10:01:58;4.93;;;2.50;;
73474;SDS011;61711;52.266;10.542;2023-07-13T10:04:33;5.32;;;2.20;;
73474;SDS011;61711;52.266;10.542;2023-07-13T10:07:07;4.22;;;2.38;;
73474;SDS011;61711;52.266;10.542;2023-07-13T10:09:33;4.15;;;2.38;;
73474;SDS011;61711;52.266;10.542;2023-07-13T10:12:00;4.68;;;2.10;;
73474;SDS011;61711;52.266;10.542;2023-07-13T10:14:26;4.22;;;2.47;;
73474;SDS011;61711;52.266;10.542;2023-07-13T10:16:55;4.38;;;2.45;;
73474;SDS011;61711;52.266;10.542;2023-07-13T10:19:25;4.47;;;2.50;;
73474;SDS011;61711;52.266;10.542;2023-07-13T10:21:56;7.75;;;3.00;;
73474;SDS011;61711;52.266;10.542;2023-07-13T10:24:25;4.40;;;2.40;;
73474;SDS011;61711;52.266;10.542;2023-07-13T10:27:00;5.30;;;2.40;;
73474;SDS011;61711;52.266;10.542;2023-07-13T10:29:29;6.28;;;2.67;;
73474;SDS011;61711;52.266;10.542;2023-07-13T10:31:56;5.57;;;2.90;;
73474;SDS011;61711;52.266;10.542;2023-07-13T10:34:22;5.32;;;2.53;;
73474;SDS011;61711;52.266;10.542;2023-07-13T10:36:49;4.57;;;2.55;;
73474;SDS011;61711;52.266;10.542;2023-07-13T10:39:26;6.65;;;2.63;;
73474;SDS011;61711;52.266;10.542;2023-07-13T10:41:54;8.07;;;2.78;;
73474;SDS011;61711;52.266;10.542;2023-07-13T10:44:22;5.15;;;2.50;;
73474;SDS011;61711;52.266;10.542;2023-07-13T10:46:52;4.63;;;2.67;;
73474;SDS011;61711;52.266;10.542;2023-07-13T10:49:18;6.22;;;2.40;;
73474;SDS011;61711;52.266;10.542;2023-07-13T10:51:45;5.18;;;2.55;;
73474;SDS011;61711;52.266;10.542;2023-07-13T10:56:38;3.38;;;2.72;;
73474;SDS011;61711;52.266;10.542;2023-07-13T10:59:10;5.25;;;2.90;;
73474;SDS011;61711;52.266;10.542;2023-07-13T11:01:40;4.22;;;2.80;;
73474;SDS011;61711;52.266;10.542;2023-07-13T11:04:12;4.97;;;2.80;;
73474;SDS011;61711;52.266;10.542;2023-07-13T11:06:40;3.85;;;2.72;;
73474;SDS011;61711;52.266;10.542;2023-07-13T11:09:24;5.57;;;3.10;;
73474;SDS011;61711;52.266;10.542;2023-07-13T11:11:58;4.80;;;3.08;;
73474;SDS011;61711;52.266;10.542;2023-07-13T11:20:42;5.03;;;2.92;;
73474;SDS011;61711;52.266;10.542;2023-07-13T11:22:51;5.13;;;2.95;;
73474;SDS011;61711;52.266;10.542;2023-07-13T11:27:52;4.57;;;2.80;;
73474;SDS011;61711;52.266;10.542;2023-07-13T11:33:10;5.38;;;3.20;;
73474;SDS011;61711;52.266;10.542;2023-07-13T11:35:50;5.90;;;3.00;;
73474;SDS011;61711;52.266;10.542;2023-07-13T11:38:38;3.28;;;2.80;;
73474;SDS011;61711;52.266;10.542;2023-07-13T11:41:07;4.70;;;2.70;;
73474;SDS011;61711;52.266;10.542;2023-07-13T11:43:39;4.70;;;3.17;;
73474;SDS011;61711;52.266;10.542;2023-07-13T11:46:21;5.88;;;2.80;;
73474;SDS011;61711;52.266;10.542;2023-07-13T11:48:48;3.85;;;2.63;;
73474;SDS011;61711;52.266;10.542;2023-07-13T11:51:25;6.63;;;3.05;;
73474;SDS011;61711;52.266;10.542;2023-07-13T11:53:52;7.90;;;2.80;;
73474;SDS011;61711;52.266;10.542;2023-07-13T11:56:18;4.07;;;2.70;;
73474;SDS011;61711;52.266;10.542;2023-07-13T11:58:48;3.35;;;2.67;;
73474;SDS011;61711;52.266;10.542;2023-07-13T12:01:21;3.58;;;2.80;;
73474;SDS011;61711;52.266;10.542;2023-07-13T12:03:48;3.72;;;2.63;;
73474;SDS011;61711;52.266;10.542;2023-07-13T12:06:30;6.93;;;4.13;;
73474;SDS011;61711;52.266;10.542;2023-07-13T12:08:57;4.75;;;2.70;;
73474;SDS011;61711;52.266;10.542;2023-07-13T12:11:24;4.88;;;2.83;;
73474;SDS011;61711;52.266;10.542;2023-07-13T12:13:50;4.07;;;2.72;;
73474;SDS011;61711;52.266;10.542;2023-07-13T12:16:29;6.50;;;2.67;;
73474;SDS011;61711;52.266;10.542;2023-07-13T12:18:57;4.25;;;2.42;;
73474;SDS011;61711;52.266;10.542;2023-07-13T12:21:26;5.28;;;2.53;;
73474;SDS011;61711;52.266;10.542;2023-07-13T12:23:53;3.35;;;2.38;;
73474;SDS011;61711;52.266;10.542;2023-07-13T12:26:19;4.25;;;2.50;;
73474;SDS011;61711;52.266;10.542;2023-07-13T12:28:47;4.03;;;2.40;;
73474;SDS011;61711;52.266;10.542;2023-07-13T12:33:59;2.92;;;2.10;;
73474;SDS011;61711;52.266;10.542;2023-07-13T12:36:26;3.75;;;2.10;;
73474;SDS011;61711;52.266;10.542;2023-07-13T12:38:54;3.72;;;2.20;;
73474;SDS011;61711;52.266;10.542;2023-07-13T12:41:20;3.05;;;2.10;;
73474;SDS011;61711;52.266;10.542;2023-07-13T12:43:48;4.68;;;2.40;;
73474;SDS011;61711;52.266;10.542;2023-07-13T12:46:20;3.95;;;2.20;;
73474;SDS011;61711;52.266;10.542;2023-07-13T12:48:50;5.55;;;2.10;;
73474;SDS011;61711;52.266;10.542;2023-07-13T12:51:17;5.45;;;2.20;;
73474;SDS011;61711;52.266;10.542;2023-07-13T12:53:48;4.53;;;2.10;;
73474;SDS011;61711;52.266;10.542;2023-07-13T12:56:18;2.58;;;1.95;;
73474;SDS011;61711;52.266;10.542;2023-07-13T12:58:45;3.35;;;2.10;;
73474;SDS011;61711;52.266;10.542;2023-07-13T13:01:19;3.90;;;2.33;;
73474;SDS011;61711;52.266;10.542;2023-07-13T13:03:52;4.03;;;2.40;;
73474;SDS011;61711;52.266;10.542;2023-07-13T13:08:48;2.72;;;2.20;;
73474;SDS011;61711;52.266;10.542;2023-07-13T13:11:14;5.53;;;2.50;;
73474;SDS011;61711;52.266;10.542;2023-07-13T13:13:41;3.65;;;2.50;;
73474;SDS011;61711;52.266;10.542;2023-07-13T13:19:13;4.57;;;2.72;;
73474;SDS011;61711;52.266;10.542;2023-07-13T13:21:40;2.83;;;2.40;;
73474;SDS011;61711;52.266;10.542;2023-07-13T13:24:10;9.68;;;2.60;;
73474;SDS011;61711;52.266;10.542;2023-07-13T13:26:37;4.00;;;2.67;;
73474;SDS011;61711;52.266;10.542;2023-07-13T13:29:11;4.28;;;2.60;;
73474;SDS011;61711;52.266;10.542;2023-07-13T13:31:38;6.10;;;2.70;;
73474;SDS011;61711;52.266;10.542;2023-07-13T13:34:07;5.35;;;2.45;;
73474;SDS011;61711;52.266;10.542;2023-07-13T13:36:33;7.88;;;3.20;;
73474;SDS011;61711;52.266;10.542;2023-07-13T13:38:59;5.53;;;2.85;;
73474;SDS011;61711;52.266;10.542;2023-07-13T13:41:26;4.57;;;2.30;;
73474;SDS011;61711;52.266;10.542;2023-07-13T13:43:53;4.15;;;2.45;;
73474;SDS011;61711;52.266;10.542;2023-07-13T13:46:20;4.90;;;2.60;;
73474;SDS011;61711;52.266;10.542;2023-07-13T13:48:50;3.20;;;2.20;;
73474;SDS011;61711;52.266;10.542;2023-07-13T13:51:19;3.70;;;2.70;;
73474;SDS011;61711;52.266;10.542;2023-07-13T13:53:46;6.50;;;3.10;;
73474;SDS011;61711;52.266;10.542;2023-07-13T13:56:13;4.90;;;3.00;;
73474;SDS011;61711;52.266;10.542;2023-07-13T13:58:39;5.13;;;2.55;;
73474;SDS011;61711;52.266;10.542;2023-07-13T14:01:11;2.90;;;2.60;;
73474;SDS011;61711;52.266;10.542;2023-07-13T14:03:37;4.33;;;3.00;;
73474;SDS011;61711;52.266;10.542;2023-07-13T14:06:03;4.97;;;2.80;;
73474;SDS011;61711;52.266;10.542;2023-07-13T14:08:30;3.67;;;3.08;;
73474;SDS011;61711;52.266;10.542;2023-07-13T14:10:56;3.67;;;2.80;;
73474;SDS011;61711;52.266;10.542;2023-07-13T14:13:34;4.47;;;3.20;;
73474;SDS011;61711;52.266;10.542;2023-07-13T14:16:01;5.43;;;3.10;;
73474;SDS011;61711;52.266;10.542;2023-07-13T14:18:27;5.00;;;3.25;;
73474;SDS011;61711;52.266;10.542;2023-07-13T14:20:53;7.65;;;4.00;;
73474;SDS011;61711;52.266;10.542;2023-07-13T14:23:19;4.05;;;2.50;;
73474;SDS011;61711;52.266;10.542;2023-07-13T14:25:46;6.32;;;2.30;;
73474;SDS011;61711;52.266;10.542;2023-07-13T14:28:18;7.65;;;2.60;;
73474;SDS011;61711;52.266;10.542;2023-07-13T14:30:45;8.32;;;2.80;;
73474;SDS011;61711;52.266;10.542;2023-07-13T14:33:12;5.50;;;3.13;;
73474;SDS011;61711;52.266;10.542;2023-07-13T14:35:38;8.18;;;2.83;;
73474;SDS011;61711;52.266;10.542;2023-07-13T14:38:04;11.40;;;3.00;;
73474;SDS011;61711;52.266;10.542;2023-07-13T14:40:31;6.07;;;2.83;;
73474;SDS011;61711;52.266;10.542;2023-07-13T14:42:58;5.30;;;2.72;;
73474;SDS011;61711;52.266;10.542;2023-07-13T14:45:24;5.93;;;2.80;;
73474;SDS011;61711;52.266;10.542;2023-07-13T14:47:51;5.85;;;3.08;;
73474;SDS011;61711;52.266;10.542;2023-07-13T14:50:18;6.70;;;2.65;;
73474;SDS011;61711;52.266;10.542;2023-07-13T14:52:45;4.93;;;2.40;;
73474;SDS011;61711;52.266;10.542;2023-07-13T14:55:13;6.82;;;2.65;;
73474;SDS011;61711;52.266;10.542;2023-07-13T14:57:39;3.72;;;2.40;;
73474;SDS011;61711;52.266;10.542;2023-07-13T15:00:11;6.80;;;2.58;;
73474;SDS011;61711;52.266;10.542;2023-07-13T15:05:14;4.03;;;2.70;;
73474;SDS011;61711;52.266;10.542;2023-07-13T15:07:40;3.13;;;2.70;;
73474;SDS011;61711;52.266;10.542;2023-07-13T15:10:17;6.03;;;3.00;;
73474;SDS011;61711;52.266;10.542;2023-07-13T15:12:43;4.57;;;2.63;;
73474;SDS011;61711;52.266;10.542;2023-07-13T15:15:10;3.90;;;2.53;;